TERMINUS DAM (TRM)

Elevation: 752' · KAWEAH R basin · Operator: US Army Corps of Engineers

Provisional data, subject to change.
Query executed Thursday at 1:04:13   clock

Select a sensor type for a plot of data.
Note: Reservoir Flows are daily averages.

Earlier

Date RES ELE    STORAGE    RES CHG    TOC STO    ABV TOC    OUTFLOW    INFLOW    FNF    PPT INC    TEMP MN    TEMP MX    WINDLEN    EVP PAN   
 FEET   AF   AF   AF   AF   CFS   CFS   CFS   INCHES   DEG F   DEG F   MILES   INCHES  
10/28/2014 590.03 14409 -83 41239 -26830 45 6 6 0.00 11 26 89 0.14
10/29/2014 589.86 14326 -83 38803 -24477 45 6 6 0.00 12 27 104 0.15
10/30/2014 589.67 14233 -93 36366 -22133 45 1 1 0.00 13 31 105 0.18
10/31/2014 589.61 14204 -29 33930 -19726 35 23 23 0.53 11 25 112 0.14
11/01/2014 589.77 14282 78 31493 -17211 20 60 60 1.28 10 14 115 0.05
11/02/2014 589.96 14375 93 29056 -14681 19 66 66 0.00 9 18 86 0.08
11/03/2014 590.03 14409 34 26620 -12211 23 42 42 0.00 9 21 91 0.11
11/04/2014 590.07 14428 19 24183 -9755 23 35 35 0.00 9 21 91 0.10
11/05/2014 590.14 14463 35 21746 -7283 21 41 41 0.00 9 22 0 0.11
11/06/2014 590.23 14507 44 19310 -4803 14 39 39 0.00 12 30 0 0.16
11/07/2014 590.33 14556 49 16873 -2317 15 42 42 0.00 13 25 0 0.12
11/08/2014 590.45 14616 60 14437 179 15 48 48 0.00 12 24 0 0.12
11/09/2014 590.56 14670 54 12000 2670 15 45 45 0.00 12 25 0 0.12
11/10/2014 590.66 14720 50 12000 2720 15 42 42 0.00 13 25 0 0.11
11/11/2014 590.76 14770 50 12000 2770 16 43 43 0.00 12 22 0 0.08
11/12/2014 590.86 14820 50 12000 2820 17 43 43 0.00 13 19 0 0.06
11/13/2014 590.96 14870 50 12000 2870 14 41 41 0.00 13 20 0 0.07
11/14/2014 591.17 14976 106 12000 2976 12 67 67 0.00 12 19 0 0.08
11/15/2014 591.40 15092 116 12000 3092 12 72 72 0.00 11 21 0 0.08
11/16/2014 591.57 15179 87 12000 3179 12 57 57 0.00 9 21 0 0.09
11/17/2014 591.72 15256 77 12000 3256 12 52 52 0.00 9 19 0 0.10
11/18/2014 591.84 15317 61 12000 3317 12 45 45 0.00 8 22 -- 0.11
11/19/2014 591.94 15369 52 12000 3369 12 40 40 0.00 12 24 -- 0.11
11/20/2014 592.06 15431 62 12000 3431 12 45 45 0.00 9 20 84 0.08
11/21/2014 592.17 15488 -- 12000 -- 12 42 42 0.00 10 13 56 0.03
11/22/2014 592.28 15545 -- 12000 -- 12 42 42 0.00 8 18 52 0.06
11/23/2014 592.40 15607 -- 12000 3607 12 44 44 0.00 11 17 54 0.05
11/24/2014 592.50 15659 52 12000 3659 12 40 40 0.00 9 18 77 0.07
11/25/2014 592.60 15712 53 12000 3712 12 40 -- 0.00 6 19 102 0.08
11/26/2014 -- -- -- -- -- -- -- -- -- -- -- -- --
11/27/2014 -- -- -- -- -- -- -- -- -- -- -- -- --

Later | Latest

Warning! This data is preliminary and subject to revision.

Show TRM Map | Plot TRM Data | 1 Month TRM Data | Real-Time TRM Data | TRM Info